METAR AND TAF INFORMATION
METAR FOR VTBS
ADDS - METARS form results

(0307 UTC 15 November 2019)
Data provider http://aviationweather.gov/metar/data/
 
METAR text: VTBS 150300Z 03010KT 9999 FEW030 29/19 Q1014 NOSIG
Conditions at: VTBS (CHON BURI/SATTAH, TH) observed 0300 UTC 15 November 2019
Temperature: 29.0°C (84°F)
Dewpoint: 19.0°C (66°F) [RH = 55%]
Pressure (altimeter): 29.94 inches Hg (1014.0 mb)
Winds: from the NNE (30 degrees) at 12 MPH (10 knots; 5.1 m/s)
Visibility: 6 or more miles (10+ km)
Ceiling: at least 12,000 feet AGL
Clouds: few clouds at 3000 feet AGL
Weather: no significant weather observed at this time

METAR text: VTBS 150230Z 04010KT 9999 FEW030 29/19 Q1014 NOSIG
Conditions at: VTBS (CHON BURI/SATTAH, TH) observed 0230 UTC 15 November 2019
Temperature: 29.0°C (84°F)
Dewpoint: 19.0°C (66°F) [RH = 55%]
Pressure (altimeter): 29.94 inches Hg (1014.0 mb)
Winds: from the NE (40 degrees) at 12 MPH (10 knots; 5.1 m/s)
Visibility: 6 or more miles (10+ km)
Ceiling: at least 12,000 feet AGL
Clouds: few clouds at 3000 feet AGL
Weather: no significant weather observed at this time

Forecast for: VTBS (CHON BURI/SATTAH, TH)
Text: TAF VTBS 142300Z 1500/1606 05008KT 9000 FEW020 SCT100
Forecast period: 0000 UTC 15 November 2019 to 0600 UTC 16 November 2019
Forecast type: FROM: standard forecast or significant change
Winds: from the NE (50 degrees) at 9 MPH (8 knots; 4.1 m/s)
Visibility: 6 miles (9 km)
Ceiling: at least 12,000 feet AGL
Clouds: few clouds at 2000 feet AGL
scattered clouds at 10000 feet AGL
Weather: no significant weather forecast for this period

 AIRPORT MAP

 RUNWAY INFORMATION
Runway 01L Runway length 12139 ft Runway width 197 ft
Runway elevation 0 ft Runway displaced threshold 0 ft Runway heading 14
Runway 19R Runway length 12139 ft Runway width 197 ft
Runway elevation 0 ft Runway displaced threshold 0 ft Runway heading 194
Runway 01R Runway length 13123 ft Runway width 197 ft
Runway elevation 0 ft Runway displaced threshold 0 ft Runway heading 14
Runway 19L Runway length 13123 ft Runway width 197 ft
Runway elevation 0 ft Runway displaced threshold 0 ft Runway heading 194

 AIRPORT FREQUENCIES
Type ATIS Name Frequency 127.8 MHZ
Type GROUND (EA Name Frequency 121.65 MHZ
Type GROUND (MA Name Frequency 121.75 MHZ
Type GROUND (WE Name Frequency 121.95 MHZ
Type TOWER (01L Name Frequency 119 MHZ
Type TOWER (01R Name Frequency 118.2 MHZ

 AIRPORT NEAR NAVIGATION AIDS
Type VOR-DME Name Suvarnabhumi Intl Frequency 111400 KHZ



Powered by Virtual Airlines Manager [v2.6.2]